createdAt,value
2017-10-04T00:04:02.829Z,101349
2017-10-04T00:09:06.779Z,101364
2017-10-04T00:14:09.969Z,101351
2017-10-04T00:19:13.186Z,101355
2017-10-04T00:24:16.361Z,101360
2017-10-04T00:29:20.302Z,101339
2017-10-04T00:34:24.338Z,101340
2017-10-04T00:39:27.546Z,101339
2017-10-04T00:44:30.760Z,101347
2017-10-04T00:49:33.966Z,101336
2017-10-04T00:54:37.146Z,101328
2017-10-04T00:59:41.201Z,101329
2017-10-04T01:04:44.339Z,101336
2017-10-04T01:09:47.501Z,101356
2017-10-04T01:14:50.645Z,101329
2017-10-04T01:19:53.796Z,101316
2017-10-04T01:24:56.963Z,101330
2017-10-04T01:30:00.223Z,101322
2017-10-04T01:35:03.491Z,101320
2017-10-04T01:40:06.694Z,101314
2017-10-04T01:45:10.667Z,101308
2017-10-04T01:50:13.881Z,101311
2017-10-04T01:55:18.137Z,101304
2017-10-04T02:00:21.408Z,101290
2017-10-04T02:05:24.866Z,101300
2017-10-04T02:10:28.049Z,101306
2017-10-04T02:15:31.223Z,101317
2017-10-04T02:20:34.367Z,101319
2017-10-04T02:25:37.768Z,101310
2017-10-04T02:30:40.942Z,101298
2017-10-04T02:35:44.101Z,101299
2017-10-04T02:40:47.334Z,101299
2017-10-04T02:45:50.526Z,101302
2017-10-04T02:50:53.739Z,101295
2017-10-04T02:55:56.921Z,101306
2017-10-04T03:01:00.134Z,101308
2017-10-04T03:06:03.320Z,101309
2017-10-04T03:11:06.529Z,101306
2017-10-04T03:16:09.746Z,101297
2017-10-04T03:21:12.973Z,101288
2017-10-04T03:26:16.181Z,101296
2017-10-04T03:31:19.421Z,101301
2017-10-04T03:36:23.370Z,101298
2017-10-04T03:41:26.552Z,101282
2017-10-04T03:46:30.504Z,101278
2017-10-04T03:51:33.685Z,101266
2017-10-04T03:56:37.641Z,101264
2017-10-04T04:01:40.852Z,101269
2017-10-04T04:06:44.060Z,101260
2017-10-04T04:11:47.350Z,101269
2017-10-04T04:16:50.569Z,101258
2017-10-04T04:21:53.771Z,101259
2017-10-04T04:26:56.964Z,101270
2017-10-04T04:32:00.261Z,101265
2017-10-04T04:37:04.348Z,101271
2017-10-04T04:42:07.523Z,101267
2017-10-04T04:47:10.716Z,101263
2017-10-04T04:52:13.900Z,101257
2017-10-04T04:57:17.869Z,101270
2017-10-04T05:02:21.233Z,101272
2017-10-04T05:07:24.405Z,101275
2017-10-04T05:12:27.631Z,101250
2017-10-04T05:17:30.845Z,101253
2017-10-04T05:22:34.805Z,101257
2017-10-04T05:27:37.969Z,101257
2017-10-04T05:32:41.249Z,101248
2017-10-04T05:37:44.441Z,101257
2017-10-04T05:42:47.975Z,101256
2017-10-04T05:47:51.203Z,101255
2017-10-04T05:52:54.395Z,101271
2017-10-04T05:57:57.685Z,101273
2017-10-04T06:03:00.890Z,101264
2017-10-04T06:08:04.130Z,101261
2017-10-04T06:13:07.501Z,101250
2017-10-04T06:18:10.708Z,101253
2017-10-04T06:23:13.882Z,101250
2017-10-04T06:28:17.081Z,101242
2017-10-04T06:33:21.053Z,101243
2017-10-04T06:38:24.263Z,101230
2017-10-04T06:43:27.472Z,101243
2017-10-04T06:48:30.658Z,101272
2017-10-04T06:53:33.841Z,101276
2017-10-04T06:58:37.034Z,101267
2017-10-04T07:03:40.228Z,101259
2017-10-04T07:08:43.451Z,101238
2017-10-04T07:13:47.435Z,101255
2017-10-04T07:18:50.625Z,101245
2017-10-04T07:23:53.830Z,101243
2017-10-04T07:28:57.029Z,101248
2017-10-04T07:34:00.219Z,101241
2017-10-04T07:39:03.403Z,101226
2017-10-04T07:44:07.496Z,101241
2017-10-04T07:49:10.706Z,101235
2017-10-04T07:54:13.897Z,101246
2017-10-04T07:59:17.097Z,101238
2017-10-04T08:04:20.305Z,101240
2017-10-04T08:09:23.518Z,101219
2017-10-04T08:14:26.673Z,101209
2017-10-04T08:19:29.885Z,101207
2017-10-04T08:24:33.849Z,101219
2017-10-04T08:29:37.085Z,101214
2017-10-04T08:34:40.281Z,101216
2017-10-04T08:39:43.506Z,101230
2017-10-04T08:44:47.465Z,101219
2017-10-04T08:49:50.656Z,101207
2017-10-04T08:54:53.917Z,101225
2017-10-04T08:59:57.185Z,101213
2017-10-04T09:05:18.241Z,101218
2017-10-04T09:10:21.461Z,101211
2017-10-04T09:15:24.642Z,101212
2017-10-04T09:20:27.870Z,101205
2017-10-04T09:25:31.059Z,101200
2017-10-04T09:30:34.257Z,101197
2017-10-04T09:35:37.452Z,101194
2017-10-04T09:40:40.665Z,101207
2017-10-04T09:45:43.845Z,101197
2017-10-04T09:50:47.789Z,101196
2017-10-04T09:55:50.999Z,101181
2017-10-04T10:00:54.181Z,101167
2017-10-04T10:05:58.133Z,101179
2017-10-04T10:11:01.333Z,101160
2017-10-04T10:16:04.519Z,101162
2017-10-04T10:21:08.572Z,101159
2017-10-04T10:26:11.772Z,101177
2017-10-04T10:31:14.995Z,101178
2017-10-04T10:36:18.173Z,101155
2017-10-04T10:41:21.370Z,101165
2017-10-04T10:46:25.332Z,101153
2017-10-04T10:51:28.526Z,101144
2017-10-04T10:56:31.733Z,101148
2017-10-04T11:01:34.950Z,101141
2017-10-04T11:06:38.161Z,101144
2017-10-04T11:11:41.369Z,101127
2017-10-04T11:16:44.777Z,101129
2017-10-04T11:21:47.999Z,101135
2017-10-04T11:26:51.206Z,101139
2017-10-04T11:31:54.402Z,101132
2017-10-04T11:36:57.736Z,101132
2017-10-04T11:42:00.921Z,101132
2017-10-04T11:47:04.257Z,101114
2017-10-04T11:52:07.538Z,101102
2017-10-04T11:57:10.757Z,101101
2017-10-04T12:02:13.934Z,101112
2017-10-04T12:07:17.151Z,101107
2017-10-04T12:12:20.376Z,101110
2017-10-04T12:17:23.569Z,101096
2017-10-04T12:22:26.751Z,101077
2017-10-04T12:27:29.969Z,101071
2017-10-04T12:32:33.165Z,101083
2017-10-04T12:37:36.442Z,101075
2017-10-04T12:42:39.900Z,101053
2017-10-04T12:47:43.105Z,101045
2017-10-04T12:52:47.137Z,101043
2017-10-04T12:57:50.366Z,101043
2017-10-04T13:02:53.582Z,101022
2017-10-04T13:07:56.810Z,101005
2017-10-04T13:13:00.797Z,101024
2017-10-04T13:18:04.019Z,101003
2017-10-04T13:23:07.210Z,101003
2017-10-04T13:28:10.542Z,100994
2017-10-04T13:33:13.915Z,100985
2017-10-04T13:38:17.207Z,100986
2017-10-04T13:43:20.518Z,100983
2017-10-04T13:48:23.747Z,101006
2017-10-04T13:53:26.948Z,101006
2017-10-04T13:58:30.160Z,101016
2017-10-04T14:03:33.398Z,101003
2017-10-04T14:08:37.378Z,100996
2017-10-04T14:13:40.587Z,101006
2017-10-04T14:18:43.937Z,100999
2017-10-04T14:23:47.120Z,100987
2017-10-04T14:28:50.450Z,100979
2017-10-04T14:33:53.751Z,100970
2017-10-04T14:38:57.100Z,100959
2017-10-04T14:44:01.072Z,100958
2017-10-04T14:49:04.295Z,100937
2017-10-04T14:54:07.516Z,100979
2017-10-04T14:59:10.818Z,100967
2017-10-04T15:04:14.020Z,100972
2017-10-04T15:09:17.331Z,100956
2017-10-04T15:14:20.553Z,100944
2017-10-04T15:19:23.755Z,100936
2017-10-04T15:24:27.007Z,100954
2017-10-04T15:29:30.375Z,100955
2017-10-04T15:34:33.583Z,100942
2017-10-04T15:39:36.767Z,100965
2017-10-04T15:44:40.049Z,100949
2017-10-04T15:49:43.249Z,100943
2017-10-04T15:54:46.503Z,100943
2017-10-04T15:59:49.782Z,100931
2017-10-04T16:04:52.983Z,100928
2017-10-04T16:09:56.181Z,100920
2017-10-04T16:14:59.411Z,100928
2017-10-04T16:20:02.640Z,100936
2017-10-04T16:25:05.907Z,100914
2017-10-04T16:30:09.114Z,100934
2017-10-04T16:35:12.342Z,100945
2017-10-04T16:40:15.747Z,100934
2017-10-04T16:45:19.034Z,100935
2017-10-04T16:50:22.274Z,100932
2017-10-04T16:55:25.557Z,100938
2017-10-04T17:00:28.846Z,100920
2017-10-04T17:05:32.157Z,100923
2017-10-04T17:10:35.386Z,100918
2017-10-04T17:15:38.600Z,100923
2017-10-04T17:20:41.798Z,100916
2017-10-04T17:25:45.005Z,100902
2017-10-04T17:30:48.229Z,100909
2017-10-04T17:35:51.481Z,100919
2017-10-04T17:40:56.293Z,100923
2017-10-04T17:45:59.479Z,100908
2017-10-04T17:51:02.682Z,100905
2017-10-04T17:56:05.918Z,100914
2017-10-04T18:01:09.161Z,100914
2017-10-04T18:06:12.362Z,100914
2017-10-04T18:11:16.599Z,100911
2017-10-04T18:16:20.545Z,100913
2017-10-04T18:21:23.774Z,100892
2017-10-04T18:26:27.046Z,100897
2017-10-04T18:31:30.376Z,100898
2017-10-04T18:36:33.713Z,100895
2017-10-04T18:41:36.995Z,100876
2017-10-04T18:46:40.240Z,100869
2017-10-04T18:51:43.595Z,100883
2017-10-04T18:56:46.826Z,100878
2017-10-04T19:01:50.214Z,100876
2017-10-04T19:06:53.401Z,100869
2017-10-04T19:11:56.644Z,100872
2017-10-04T19:16:59.936Z,100881
2017-10-04T19:22:03.199Z,100888
2017-10-04T19:27:06.498Z,100889
2017-10-04T19:32:09.704Z,100895
2017-10-04T19:37:13.076Z,100898
2017-10-04T19:42:16.328Z,100887
2017-10-04T19:47:22.176Z,100890
2017-10-04T19:52:25.391Z,100892
2017-10-04T19:57:28.616Z,100898
2017-10-04T20:02:31.863Z,100890
2017-10-04T20:07:35.139Z,100905
2017-10-04T20:12:38.309Z,100908
2017-10-04T20:17:41.604Z,100900
2017-10-04T20:22:44.822Z,100909
2017-10-04T20:27:48.089Z,100902
2017-10-04T20:32:51.304Z,100902
2017-10-04T20:37:54.609Z,100890
2017-10-04T20:42:57.851Z,100892
2017-10-04T20:48:01.049Z,100891
2017-10-04T20:53:04.262Z,100906
2017-10-04T20:58:07.484Z,100903
2017-10-04T21:03:10.692Z,100902
2017-10-04T21:08:13.931Z,100897
2017-10-04T21:13:17.137Z,100893
2017-10-04T21:18:20.541Z,100886
2017-10-04T21:23:24.528Z,100881
2017-10-04T21:28:27.778Z,100871
2017-10-04T21:33:31.058Z,100869
2017-10-04T21:38:34.485Z,100867
2017-10-04T21:43:37.701Z,100865
2017-10-04T21:48:40.887Z,100868
2017-10-04T21:53:44.081Z,100869
2017-10-04T21:58:47.272Z,100853
2017-10-04T22:03:50.477Z,100854
2017-10-04T22:08:53.709Z,100867
2017-10-04T22:13:56.922Z,100856
2017-10-04T22:19:00.130Z,100850
2017-10-04T22:24:03.355Z,100834
2017-10-04T22:29:06.637Z,100813
2017-10-04T22:34:09.822Z,100803
2017-10-04T22:39:13.019Z,100810
2017-10-04T22:44:16.217Z,100813
2017-10-04T22:49:19.405Z,100796
2017-10-04T22:54:23.369Z,100768
2017-10-04T22:59:26.577Z,100769
2017-10-04T23:04:29.782Z,100757
2017-10-04T23:09:33.011Z,100747
2017-10-04T23:14:36.202Z,100747
2017-10-04T23:19:39.389Z,100755
2017-10-04T23:24:42.593Z,100743
2017-10-04T23:29:45.777Z,100752
2017-10-04T23:34:49.011Z,100759
2017-10-04T23:39:52.226Z,100742
2017-10-04T23:44:55.426Z,100726
2017-10-04T23:49:58.735Z,100718
2017-10-04T23:55:01.955Z,100702
